createdAt,value
2022-12-08T00:00:33.694Z,13.70
2022-12-08T00:05:59.130Z,10.50
2022-12-08T00:11:07.289Z,9.10
2022-12-08T00:16:15.649Z,9.10
2022-12-08T00:21:22.932Z,11.50
2022-12-08T00:26:30.704Z,7.90
2022-12-08T00:31:38.964Z,7.60
2022-12-08T00:36:47.329Z,10.70
2022-12-08T00:42:13.657Z,6.70
2022-12-08T00:47:24.802Z,10.60
2022-12-08T00:52:33.499Z,9.50
2022-12-08T00:57:41.979Z,11.50
2022-12-08T01:02:50.229Z,10.30
2022-12-08T01:07:58.224Z,8.30
2022-12-08T01:13:05.375Z,11.60
2022-12-08T01:18:13.328Z,11.10
2022-12-08T01:23:21.313Z,7.60
2022-12-08T01:28:29.271Z,7.80
2022-12-08T01:33:36.535Z,7.00
2022-12-08T01:38:44.465Z,6.50
2022-12-08T01:44:02.963Z,10.70
2022-12-08T01:49:15.028Z,5.80
2022-12-08T01:54:25.300Z,9.50
2022-12-08T01:59:35.530Z,6.50
2022-12-08T02:04:43.650Z,8.10
2022-12-08T02:09:52.957Z,6.60
2022-12-08T02:15:04.983Z,7.00
2022-12-08T02:20:37.435Z,8.40
2022-12-08T02:26:09.603Z,7.80
2022-12-08T02:31:30.597Z,9.70
2022-12-08T02:36:46.006Z,8.40
2022-12-08T02:42:04.046Z,9.70
2022-12-08T02:47:15.937Z,9.90
2022-12-08T02:52:47.033Z,8.30
2022-12-08T02:58:29.989Z,10.10
2022-12-08T03:03:48.980Z,11.10
2022-12-08T03:09:01.820Z,10.80
2022-12-08T03:14:13.313Z,12.10
2022-12-08T03:19:25.105Z,9.00
2022-12-08T03:24:36.110Z,11.10
2022-12-08T03:29:44.482Z,11.40
2022-12-08T03:34:55.105Z,10.10
2022-12-08T03:40:03.536Z,10.50
2022-12-08T03:45:12.891Z,8.90
2022-12-08T03:50:21.121Z,8.90
2022-12-08T03:55:29.129Z,9.90
2022-12-08T04:00:37.231Z,12.70
2022-12-08T04:05:45.547Z,8.70
2022-12-08T04:10:53.509Z,7.60
2022-12-08T04:16:00.681Z,8.50
2022-12-08T04:21:09.431Z,9.40
2022-12-08T04:26:18.585Z,8.20
2022-12-08T04:31:26.769Z,10.60
2022-12-08T04:36:34.805Z,8.30
2022-12-08T04:41:42.866Z,11.40
2022-12-08T04:46:50.933Z,8.10
2022-12-08T04:51:59.504Z,10.00
2022-12-08T04:57:07.638Z,7.00
2022-12-08T05:02:15.813Z,11.80
2022-12-08T05:07:24.269Z,9.30
2022-12-08T05:12:32.237Z,7.00
2022-12-08T05:17:40.270Z,8.50
2022-12-08T05:22:48.261Z,10.10
2022-12-08T05:28:17.586Z,8.90
2022-12-08T05:33:24.910Z,12.90
2022-12-08T05:38:32.967Z,10.60
2022-12-08T05:43:41.080Z,9.50
2022-12-08T05:48:48.754Z,9.90
2022-12-08T05:53:57.953Z,9.20
2022-12-08T05:59:09.039Z,12.00
2022-12-08T06:04:17.102Z,11.40
2022-12-08T06:09:25.567Z,8.20
2022-12-08T06:14:34.217Z,9.10
2022-12-08T06:19:42.278Z,10.80
2022-12-08T06:24:50.351Z,9.40
2022-12-08T06:29:58.524Z,9.70
2022-12-08T06:35:07.259Z,10.00
2022-12-08T06:40:17.185Z,9.60
2022-12-08T06:45:25.446Z,10.10
2022-12-08T06:50:35.442Z,10.90
2022-12-08T06:56:02.049Z,9.40
2022-12-08T07:01:12.710Z,9.40
2022-12-08T07:06:24.179Z,9.70
2022-12-08T07:11:32.663Z,8.40
2022-12-08T07:16:40.857Z,9.70
2022-12-08T07:21:48.897Z,11.50
2022-12-08T07:26:56.967Z,9.90
2022-12-08T07:32:05.025Z,8.70
2022-12-08T07:37:13.136Z,8.80
2022-12-08T07:42:20.345Z,8.70
2022-12-08T07:47:28.412Z,6.80
2022-12-08T07:52:37.535Z,8.20
2022-12-08T07:57:45.513Z,5.60
2022-12-08T08:02:53.644Z,5.60
2022-12-08T08:08:01.908Z,7.50
2022-12-08T08:13:10.295Z,6.10
2022-12-08T08:18:18.831Z,7.90
2022-12-08T08:23:26.857Z,5.30
2022-12-08T08:28:35.640Z,6.00
2022-12-08T08:33:43.707Z,5.90
2022-12-08T08:38:51.977Z,6.10
2022-12-08T08:44:00.110Z,6.10
2022-12-08T08:49:07.335Z,5.60
2022-12-08T08:54:15.568Z,4.70
2022-12-08T08:59:23.689Z,4.40
2022-12-08T09:04:32.204Z,5.00
2022-12-08T09:09:41.658Z,4.60
2022-12-08T09:14:49.971Z,6.20
2022-12-08T09:19:58.665Z,5.40
2022-12-08T09:25:07.472Z,4.90
2022-12-08T09:30:15.719Z,4.20
2022-12-08T09:35:23.832Z,4.50
2022-12-08T09:40:35.232Z,6.80
2022-12-08T09:45:43.613Z,11.50
2022-12-08T09:50:56.479Z,6.90
2022-12-08T09:56:08.657Z,8.70
2022-12-08T10:01:18.450Z,8.00
2022-12-08T10:06:33.548Z,4.90
2022-12-08T10:11:54.516Z,9.00
2022-12-08T10:17:08.282Z,6.00
2022-12-08T10:22:25.251Z,5.50
2022-12-08T10:27:36.664Z,5.40
2022-12-08T10:32:48.621Z,3.90
2022-12-08T10:38:06.875Z,7.40
2022-12-08T10:43:20.164Z,5.70
2022-12-08T10:48:31.662Z,6.90
2022-12-08T10:53:48.896Z,5.10
2022-12-08T10:59:15.181Z,6.00
2022-12-08T11:04:26.225Z,4.90
2022-12-08T11:09:47.161Z,5.70
2022-12-08T11:15:02.777Z,8.30
2022-12-08T11:20:24.897Z,9.40
2022-12-08T11:25:32.989Z,9.20
2022-12-08T11:30:45.652Z,6.80
2022-12-08T11:35:57.442Z,9.90
2022-12-08T11:41:15.726Z,7.20
2022-12-08T11:46:29.961Z,7.10
2022-12-08T11:51:41.343Z,9.00
2022-12-08T11:56:53.331Z,8.10
2022-12-08T12:02:01.633Z,8.00
2022-12-08T12:07:46.156Z,9.20
2022-12-08T12:13:07.037Z,8.30
2022-12-08T12:18:21.010Z,11.30
2022-12-08T12:23:38.818Z,12.90
2022-12-08T12:28:52.734Z,9.30
2022-12-08T12:34:10.578Z,10.60
2022-12-08T12:39:20.664Z,11.40
2022-12-08T12:44:41.019Z,8.80
2022-12-08T12:50:11.153Z,9.70
2022-12-08T12:55:53.755Z,10.00
2022-12-08T13:01:31.689Z,9.60
2022-12-08T13:06:43.709Z,10.40
2022-12-08T13:11:57.175Z,8.50
2022-12-08T13:17:07.176Z,8.90
2022-12-08T13:22:49.073Z,9.50
2022-12-08T13:28:10.979Z,13.40
2022-12-08T13:33:24.697Z,14.00
2022-12-08T13:38:37.491Z,13.10
2022-12-08T13:44:20.584Z,13.90
2022-12-08T13:56:05.386Z,10.90
2022-12-08T14:00:28.031Z,11.10
2022-12-08T14:11:34.462Z,10.90
2022-12-08T14:16:44.201Z,15.00
2022-12-08T14:21:56.169Z,16.40
2022-12-08T14:27:07.246Z,14.40
2022-12-08T14:32:31.953Z,15.50
2022-12-08T14:37:44.064Z,17.10
2022-12-08T14:42:55.839Z,16.50
2022-12-08T14:48:22.608Z,15.00
2022-12-08T14:53:40.004Z,16.40
2022-12-08T14:58:49.360Z,19.80
2022-12-08T15:04:05.286Z,18.20
2022-12-08T15:09:33.089Z,15.50
2022-12-08T15:14:42.868Z,14.40
2022-12-08T15:20:00.828Z,16.30
2022-12-08T15:25:14.221Z,14.20
2022-12-08T15:30:22.622Z,16.40
2022-12-08T15:35:34.672Z,16.20
2022-12-08T15:40:46.114Z,18.60
2022-12-08T15:45:59.389Z,16.70
2022-12-08T15:51:08.207Z,17.20
2022-12-08T15:56:27.289Z,18.10
2022-12-08T16:01:36.201Z,17.00
2022-12-08T16:13:26.935Z,22.30
2022-12-08T16:18:05.595Z,16.20
2022-12-08T16:23:34.603Z,21.00
2022-12-08T16:28:54.136Z,21.50
2022-12-08T16:34:03.940Z,18.60
2022-12-08T16:39:14.573Z,22.80
2022-12-08T16:44:23.617Z,24.40
2022-12-08T16:49:30.687Z,21.90
2022-12-08T16:54:39.561Z,24.40
2022-12-08T16:59:48.139Z,21.80
2022-12-08T17:04:56.945Z,22.60
2022-12-08T17:10:07.141Z,22.70
2022-12-08T17:15:20.904Z,29.70
2022-12-08T17:20:30.642Z,26.80
2022-12-08T17:25:38.219Z,33.30
2022-12-08T17:30:47.221Z,34.40
2022-12-08T17:35:57.177Z,32.30
2022-12-08T17:41:08.684Z,35.20
2022-12-08T17:46:21.019Z,33.50
2022-12-08T17:56:36.294Z,38.50
2022-12-08T18:01:43.637Z,42.20
2022-12-08T18:06:52.009Z,40.00
2022-12-08T18:12:00.025Z,42.90
2022-12-08T18:17:08.809Z,45.50
2022-12-08T18:22:17.075Z,49.90
2022-12-08T18:27:25.215Z,45.00
2022-12-08T18:32:34.099Z,50.90
2022-12-08T18:37:43.612Z,46.40
2022-12-08T18:42:53.162Z,51.40
2022-12-08T18:48:01.450Z,50.60
2022-12-08T18:53:09.791Z,52.80
2022-12-08T18:58:18.243Z,47.90
2022-12-08T19:03:26.716Z,51.70
2022-12-08T19:08:35.651Z,52.60
2022-12-08T19:13:44.531Z,57.70
2022-12-08T19:18:53.380Z,56.70
2022-12-08T19:24:01.927Z,55.30
2022-12-08T19:29:10.683Z,57.20
2022-12-08T19:34:19.431Z,50.80
2022-12-08T19:39:46.039Z,55.60
2022-12-08T19:44:54.639Z,51.60
2022-12-08T19:50:20.964Z,50.60
2022-12-08T19:55:29.636Z,54.90
2022-12-08T20:00:40.986Z,52.70
2022-12-08T20:05:52.981Z,48.40
2022-12-08T20:11:01.759Z,53.70
2022-12-08T20:16:10.696Z,57.30
2022-12-08T20:21:19.772Z,52.80
2022-12-08T20:26:28.363Z,54.70
2022-12-08T20:31:36.823Z,53.50
2022-12-08T20:36:45.190Z,58.80
2022-12-08T20:41:54.924Z,62.60
2022-12-08T20:47:03.500Z,53.10
2022-12-08T20:52:12.357Z,53.20
2022-12-08T20:57:20.484Z,56.40
2022-12-08T21:02:28.771Z,55.00
2022-12-08T21:07:38.142Z,53.40
2022-12-08T21:12:46.663Z,53.60
2022-12-08T21:17:55.277Z,52.80
2022-12-08T21:23:04.317Z,51.50
2022-12-08T21:28:13.614Z,52.50
2022-12-08T21:33:22.435Z,46.80
2022-12-08T21:38:31.028Z,44.90
2022-12-08T21:43:39.763Z,49.50
2022-12-08T21:48:48.271Z,50.40
2022-12-08T21:53:56.690Z,54.70
2022-12-08T21:59:06.193Z,45.60
2022-12-08T22:04:18.464Z,49.80
2022-12-08T22:09:27.106Z,51.60
2022-12-08T22:14:35.325Z,47.60
2022-12-08T22:19:43.381Z,48.50
2022-12-08T22:24:51.588Z,54.40
2022-12-08T22:29:59.883Z,50.50
2022-12-08T22:35:08.716Z,50.40
2022-12-08T22:40:17.533Z,49.80
2022-12-08T22:45:25.938Z,48.60
2022-12-08T22:50:34.287Z,53.30
2022-12-08T22:55:47.001Z,48.20
2022-12-08T23:00:55.342Z,53.40
2022-12-08T23:06:03.926Z,53.90
2022-12-08T23:11:12.200Z,47.30
2022-12-08T23:16:20.472Z,50.50
2022-12-08T23:21:29.852Z,52.00
2022-12-08T23:26:38.132Z,52.30
2022-12-08T23:31:46.374Z,54.10
2022-12-08T23:36:54.432Z,54.00
2022-12-08T23:42:02.731Z,52.90
2022-12-08T23:47:11.040Z,52.50
2022-12-08T23:52:19.823Z,55.30
2022-12-08T23:57:28.182Z,51.60
